createdAt,value
2022-12-31T00:02:10.622Z,98061.78
2022-12-31T00:04:58.750Z,98073.03
2022-12-31T00:07:46.758Z,98065.72
2022-12-31T00:10:41.281Z,98073.50
2022-12-31T00:13:30.622Z,98065.53
2022-12-31T00:16:21.065Z,98064.19
2022-12-31T00:19:10.768Z,98059.25
2022-12-31T00:21:58.503Z,98065.53
2022-12-31T00:24:46.469Z,98064.88
2022-12-31T00:27:34.644Z,98072.84
2022-12-31T00:30:23.560Z,98065.88
2022-12-31T00:33:11.022Z,98068.69
2022-12-31T00:36:09.463Z,98079.47
2022-12-31T00:38:58.700Z,98074.16
2022-12-31T00:41:46.404Z,98079.50
2022-12-31T00:44:34.422Z,98074.50
2022-12-31T00:47:26.349Z,98076.50
2022-12-31T00:50:15.275Z,98081.81
2022-12-31T00:53:03.125Z,98083.31
2022-12-31T00:55:51.076Z,98088.78
2022-12-31T00:58:39.033Z,98100.72
2022-12-31T01:01:29.125Z,98109.06
2022-12-31T01:04:21.731Z,98114.06
2022-12-31T01:07:12.375Z,98126.75
2022-12-31T01:10:01.981Z,98126.47
2022-12-31T01:12:52.633Z,98134.75
2022-12-31T01:15:41.187Z,98137.03
2022-12-31T01:18:31.999Z,98141.34
2022-12-31T01:21:22.363Z,98142.56
2022-12-31T01:24:11.723Z,98135.25
2022-12-31T01:27:01.770Z,98146.66
2022-12-31T01:29:49.803Z,98144.53
2022-12-31T01:32:39.763Z,98150.84
2022-12-31T01:35:27.681Z,98141.56
2022-12-31T01:38:16.891Z,98147.19
2022-12-31T01:41:05.604Z,98155.50
2022-12-31T01:43:55.949Z,98156.56
2022-12-31T01:46:49.939Z,98156.88
2022-12-31T01:49:42.173Z,98166.19
2022-12-31T01:52:32.012Z,98161.88
2022-12-31T01:55:27.086Z,98177.03
2022-12-31T01:58:19.149Z,98166.28
2022-12-31T02:01:08.897Z,98170.63
2022-12-31T02:03:58.251Z,98175.94
2022-12-31T02:06:50.599Z,98172.44
2022-12-31T02:09:41.590Z,98169.94
2022-12-31T02:12:30.515Z,98172.31
2022-12-31T02:15:18.657Z,98163.97
2022-12-31T02:18:18.285Z,98173.91
2022-12-31T02:21:36.147Z,98177.75
2022-12-31T02:25:12.398Z,98183.19
2022-12-31T02:28:17.117Z,98188.53
2022-12-31T02:31:16.874Z,98173.38
2022-12-31T02:34:09.497Z,98167.44
2022-12-31T02:37:01.167Z,98165.56
2022-12-31T02:39:50.221Z,98167.75
2022-12-31T02:42:37.870Z,98171.09
2022-12-31T02:45:32.836Z,98174.44
2022-12-31T02:48:41.147Z,98173.13
2022-12-31T02:51:39.845Z,98186.94
2022-12-31T02:54:34.867Z,98182.78
2022-12-31T02:57:27.762Z,98184.59
2022-12-31T03:00:35.172Z,98178.75
2022-12-31T03:03:25.624Z,98185.59
2022-12-31T03:06:14.439Z,98185.94
2022-12-31T03:09:14.765Z,98186.56
2022-12-31T03:12:21.623Z,98194.94
2022-12-31T03:15:20.674Z,98181.63
2022-12-31T03:18:11.069Z,98181.94
2022-12-31T03:21:25.875Z,98171.25
2022-12-31T03:24:31.193Z,98179.25
2022-12-31T03:27:19.022Z,98181.91
2022-12-31T03:30:08.612Z,98172.94
2022-12-31T03:32:57.380Z,98183.91
2022-12-31T03:35:46.901Z,98182.41
2022-12-31T03:38:36.590Z,98185.22
2022-12-31T03:41:24.479Z,98189.84
2022-12-31T03:44:12.056Z,98183.22
2022-12-31T03:47:02.271Z,98180.06
2022-12-31T03:49:49.839Z,98183.38
2022-12-31T03:52:37.771Z,98184.84
2022-12-31T03:55:27.417Z,98184.47
2022-12-31T03:58:15.292Z,98187.81
2022-12-31T04:01:03.303Z,98179.16
2022-12-31T04:03:51.102Z,98187.50
2022-12-31T04:06:38.837Z,98189.16
2022-12-31T04:09:26.809Z,98184.16
2022-12-31T04:12:16.041Z,98189.66
2022-12-31T04:15:03.904Z,98191.66
2022-12-31T04:17:51.693Z,98204.56
2022-12-31T04:20:39.754Z,98205.19
2022-12-31T04:23:27.580Z,98213.84
2022-12-31T04:26:15.195Z,98217.38
2022-12-31T04:29:04.657Z,98211.03
2022-12-31T04:31:53.733Z,98204.78
2022-12-31T04:34:41.673Z,98199.00
2022-12-31T04:37:29.680Z,98196.88
2022-12-31T04:40:18.929Z,98201.91
2022-12-31T04:43:06.985Z,98217.19
2022-12-31T04:45:56.455Z,98212.22
2022-12-31T04:48:44.679Z,98208.22
2022-12-31T04:51:37.476Z,98218.56
2022-12-31T04:54:25.353Z,98218.53
2022-12-31T04:57:13.250Z,98226.50
2022-12-31T05:00:00.869Z,98216.25
2022-12-31T05:02:50.455Z,98222.59
2022-12-31T05:05:42.677Z,98213.44
2022-12-31T05:08:31.045Z,98213.59
2022-12-31T05:11:18.953Z,98210.72
2022-12-31T05:14:06.567Z,98224.53
2022-12-31T05:16:54.938Z,98217.16
2022-12-31T05:19:43.992Z,98219.63
2022-12-31T05:22:31.787Z,98225.75
2022-12-31T05:25:19.789Z,98228.03
2022-12-31T05:28:08.021Z,98231.38
2022-12-31T05:30:56.370Z,98234.59
2022-12-31T05:33:43.965Z,98231.41
2022-12-31T05:36:33.409Z,98230.03
2022-12-31T05:39:21.353Z,98230.56
2022-12-31T05:42:09.333Z,98235.56
2022-12-31T05:44:57.237Z,98235.56
2022-12-31T05:47:45.104Z,98238.84
2022-12-31T05:50:33.297Z,98247.50
2022-12-31T05:53:22.798Z,98239.19
2022-12-31T05:56:11.170Z,98255.13
2022-12-31T05:58:58.974Z,98262.44
2022-12-31T06:01:47.142Z,98253.28
2022-12-31T06:04:35.184Z,98267.75
2022-12-31T06:07:23.052Z,98269.38
2022-12-31T06:10:12.456Z,98272.72
2022-12-31T06:13:00.387Z,98277.84
2022-12-31T06:15:48.317Z,98276.03
2022-12-31T06:18:36.543Z,98264.59
2022-12-31T06:21:24.148Z,98274.53
2022-12-31T06:24:12.234Z,98267.41
2022-12-31T06:27:01.732Z,98268.69
2022-12-31T06:29:52.182Z,98267.41
2022-12-31T06:32:40.740Z,98276.34
2022-12-31T06:35:28.493Z,98277.47
2022-12-31T06:38:16.268Z,98269.31
2022-12-31T06:41:05.089Z,98273.13
2022-12-31T06:43:54.491Z,98273.59
2022-12-31T06:46:42.336Z,98276.41
2022-12-31T06:49:30.129Z,98280.03
2022-12-31T06:52:18.288Z,98275.56
2022-12-31T06:55:07.566Z,98281.50
2022-12-31T06:57:56.034Z,98288.16
2022-12-31T07:00:57.296Z,98289.50
2022-12-31T07:03:54.344Z,98282.53
2022-12-31T07:06:49.729Z,98291.03
2022-12-31T07:09:46.598Z,98282.53
2022-12-31T07:12:49.619Z,98284.34
2022-12-31T07:15:57.345Z,98289.25
2022-12-31T07:18:51.052Z,98292.72
2022-12-31T07:21:41.497Z,98289.09
2022-12-31T07:24:29.893Z,98297.53
2022-12-31T07:27:33.204Z,98298.00
2022-12-31T07:30:24.130Z,98308.28
2022-12-31T07:33:32.585Z,98315.59
2022-12-31T07:36:36.255Z,98312.78
2022-12-31T07:39:33.616Z,98302.94
2022-12-31T07:42:30.426Z,98309.44
2022-12-31T07:45:24.742Z,98318.19
2022-12-31T07:48:23.215Z,98320.84
2022-12-31T07:51:13.556Z,98313.41
2022-12-31T07:54:04.663Z,98310.59
2022-12-31T07:56:54.208Z,98316.22
2022-12-31T07:59:52.761Z,98324.66
2022-12-31T08:03:04.829Z,98327.19
2022-12-31T08:06:01.497Z,98332.91
2022-12-31T08:08:59.221Z,98326.81
2022-12-31T08:11:56.474Z,98332.69
2022-12-31T08:14:47.879Z,98340.91
2022-12-31T08:17:45.479Z,98342.13
2022-12-31T08:20:37.436Z,98343.31
2022-12-31T08:23:33.918Z,98357.88
2022-12-31T08:26:35.779Z,98360.59
2022-12-31T08:29:37.203Z,98350.94
2022-12-31T08:32:32.952Z,98365.31
2022-12-31T08:35:33.558Z,98359.50
2022-12-31T08:38:33.783Z,98357.63
2022-12-31T08:41:29.809Z,98364.78
2022-12-31T08:44:26.626Z,98364.81
2022-12-31T08:47:32.879Z,98366.63
2022-12-31T08:50:24.142Z,98364.00
2022-12-31T08:53:12.817Z,98367.84
2022-12-31T08:56:07.641Z,98368.50
2022-12-31T08:59:05.106Z,98367.34
2022-12-31T09:02:17.700Z,98370.19
2022-12-31T09:05:17.344Z,98376.00
2022-12-31T09:08:15.573Z,98385.19
2022-12-31T09:11:14.284Z,98391.84
2022-12-31T09:14:41.531Z,98390.34
2022-12-31T09:17:45.224Z,98391.03
2022-12-31T09:20:43.737Z,98395.69
2022-12-31T09:23:32.592Z,98405.38
2022-12-31T09:26:38.099Z,98393.69
2022-12-31T09:29:39.202Z,98396.34
2022-12-31T09:32:39.008Z,98405.69
2022-12-31T09:35:36.443Z,98404.69
2022-12-31T09:38:31.738Z,98399.19
2022-12-31T09:41:41.020Z,98411.69
2022-12-31T09:45:03.148Z,98407.69
2022-12-31T09:48:43.770Z,98414.69
2022-12-31T09:51:33.550Z,98410.69
2022-12-31T09:54:39.442Z,98427.03
2022-12-31T09:57:41.826Z,98410.00
2022-12-31T10:00:37.329Z,98427.69
2022-12-31T10:03:39.936Z,98424.03
2022-12-31T10:06:34.119Z,98422.84
2022-12-31T10:09:46.149Z,98412.84
2022-12-31T10:12:59.806Z,98418.81
2022-12-31T10:16:13.093Z,98421.09
2022-12-31T10:19:35.618Z,98416.91
2022-12-31T10:22:49.495Z,98397.16
2022-12-31T10:26:07.689Z,98392.78
2022-12-31T10:29:00.929Z,98389.75
2022-12-31T10:31:59.314Z,98383.56
2022-12-31T10:35:14.224Z,98384.44
2022-12-31T10:38:14.580Z,98378.06
2022-12-31T10:41:41.583Z,98385.63
2022-12-31T10:45:04.714Z,98391.44
2022-12-31T10:48:28.475Z,98392.06
2022-12-31T10:51:49.054Z,98393.63
2022-12-31T10:55:09.031Z,98387.91
2022-12-31T10:58:40.961Z,98399.75
2022-12-31T11:01:42.654Z,98401.88
2022-12-31T11:05:12.929Z,98396.34
2022-12-31T11:08:26.323Z,98392.97
2022-12-31T11:11:29.013Z,98391.56
2022-12-31T11:14:29.513Z,98381.19
2022-12-31T11:17:29.528Z,98376.44
2022-12-31T11:20:34.968Z,98374.53
2022-12-31T11:23:36.939Z,98378.56
2022-12-31T11:26:38.558Z,98375.50
2022-12-31T11:29:38.213Z,98362.38
2022-12-31T11:32:41.136Z,98363.41
2022-12-31T11:35:41.134Z,98352.34
2022-12-31T11:38:34.334Z,98358.34
2022-12-31T11:41:33.088Z,98359.47
2022-12-31T11:44:37.092Z,98360.94
2022-12-31T11:51:15.987Z,98363.81
2022-12-31T11:54:37.505Z,98364.66
2022-12-31T11:57:34.199Z,98370.94
2022-12-31T12:00:24.599Z,98362.56
2022-12-31T12:03:13.838Z,98357.75
2022-12-31T12:06:01.818Z,98352.59
2022-12-31T12:08:50.923Z,98354.38
2022-12-31T12:11:40.485Z,98357.34
2022-12-31T12:14:35.598Z,98355.28
2022-12-31T12:17:32.310Z,98348.53
2022-12-31T12:20:25.621Z,98353.34
2022-12-31T12:23:21.386Z,98348.97
2022-12-31T12:26:24.351Z,98343.34
2022-12-31T12:29:17.736Z,98343.59
2022-12-31T12:32:16.529Z,98342.00
2022-12-31T12:35:15.837Z,98331.91
2022-12-31T12:38:07.020Z,98336.34
2022-12-31T12:40:57.866Z,98329.28
2022-12-31T12:43:47.930Z,98328.06
2022-12-31T12:46:43.610Z,98330.16
2022-12-31T12:49:43.334Z,98334.41
2022-12-31T12:53:08.310Z,98334.81
2022-12-31T12:56:07.785Z,98335.66
2022-12-31T12:59:19.515Z,98334.75
2022-12-31T13:02:28.229Z,98332.47
2022-12-31T13:05:28.450Z,98324.31
2022-12-31T13:08:33.129Z,98325.59
2022-12-31T13:11:32.473Z,98332.88
2022-12-31T13:14:27.975Z,98328.16
2022-12-31T13:17:48.284Z,98320.97
2022-12-31T13:20:48.894Z,98325.75
2022-12-31T13:23:44.172Z,98322.88
2022-12-31T13:26:36.945Z,98317.91
2022-12-31T13:29:29.612Z,98314.38
2022-12-31T13:32:21.059Z,98316.66
2022-12-31T13:35:26.061Z,98315.59
2022-12-31T13:38:19.555Z,98303.34
2022-12-31T13:41:13.320Z,98309.75
2022-12-31T13:44:12.821Z,98304.00
2022-12-31T13:47:09.716Z,98308.09
2022-12-31T13:50:02.169Z,98303.53
2022-12-31T13:52:55.477Z,98299.41
2022-12-31T13:55:56.631Z,98296.66
2022-12-31T13:58:55.512Z,98315.34
2022-12-31T14:01:51.096Z,98327.34
2022-12-31T14:04:43.567Z,98340.25
2022-12-31T14:07:45.326Z,98351.63
2022-12-31T14:10:46.037Z,98354.03
2022-12-31T14:13:46.431Z,98355.78
2022-12-31T14:16:41.647Z,98352.63
2022-12-31T14:19:47.701Z,98357.09
2022-12-31T14:22:41.993Z,98368.38
2022-12-31T14:25:36.176Z,98371.31
2022-12-31T14:28:29.974Z,98369.38
2022-12-31T14:31:30.820Z,98365.00
2022-12-31T14:34:26.701Z,98368.59
2022-12-31T14:37:21.813Z,98371.53
2022-12-31T14:40:20.884Z,98377.19
2022-12-31T14:43:19.808Z,98384.66
2022-12-31T14:46:17.495Z,98394.75
2022-12-31T14:49:23.437Z,98402.25
2022-12-31T14:52:24.016Z,98401.84
2022-12-31T14:55:28.274Z,98390.56
2022-12-31T14:58:28.043Z,98398.06
2022-12-31T15:01:26.002Z,98393.34
2022-12-31T15:04:17.099Z,98401.78
2022-12-31T15:07:12.195Z,98397.19
2022-12-31T15:10:11.952Z,98391.91
2022-12-31T15:13:06.969Z,98390.78
2022-12-31T15:16:17.697Z,98393.38
2022-12-31T15:19:36.348Z,98390.44
2022-12-31T15:22:37.367Z,98387.00
2022-12-31T15:25:36.757Z,98390.69
2022-12-31T15:28:42.863Z,98385.75
2022-12-31T15:31:37.657Z,98380.59
2022-12-31T15:34:34.979Z,98384.50
2022-12-31T15:37:32.849Z,98385.66
2022-12-31T15:40:26.201Z,98387.34
2022-12-31T15:43:19.350Z,98387.00
2022-12-31T15:46:21.160Z,98392.00
2022-12-31T15:49:18.206Z,98385.34
2022-12-31T15:52:15.418Z,98380.69
2022-12-31T15:55:10.430Z,98387.19
2022-12-31T15:58:05.079Z,98377.19
2022-12-31T16:01:03.012Z,98384.03
2022-12-31T16:03:55.611Z,98386.03
2022-12-31T16:06:48.944Z,98393.16
2022-12-31T16:09:41.970Z,98385.16
2022-12-31T16:12:44.760Z,98383.00
2022-12-31T16:15:37.641Z,98376.50
2022-12-31T16:18:28.123Z,98378.19
2022-12-31T16:21:28.694Z,98370.88
2022-12-31T16:24:29.323Z,98389.50
2022-12-31T16:27:19.292Z,98401.66
2022-12-31T16:30:21.433Z,98403.31
2022-12-31T16:33:15.777Z,98406.13
2022-12-31T16:36:05.180Z,98413.59
2022-12-31T16:39:01.334Z,98401.91
2022-12-31T16:41:51.804Z,98405.38
2022-12-31T16:44:42.307Z,98400.00
2022-12-31T16:47:38.108Z,98414.44
2022-12-31T16:50:27.173Z,98404.06
2022-12-31T16:53:18.708Z,98413.38
2022-12-31T16:56:09.815Z,98412.34
2022-12-31T16:59:03.709Z,98407.22
2022-12-31T17:01:56.048Z,98410.69
2022-12-31T17:04:55.281Z,98418.00
2022-12-31T17:07:44.732Z,98417.13
2022-12-31T17:10:37.788Z,98426.56
2022-12-31T17:13:29.834Z,98426.03
2022-12-31T17:16:19.464Z,98423.31
2022-12-31T17:19:09.168Z,98423.78
2022-12-31T17:21:57.236Z,98423.13
2022-12-31T17:24:47.945Z,98422.91
2022-12-31T17:27:37.209Z,98425.22
2022-12-31T17:30:40.151Z,98425.81
2022-12-31T17:33:29.555Z,98425.81
2022-12-31T17:36:27.669Z,98427.28
2022-12-31T17:39:20.159Z,98425.25
2022-12-31T17:42:09.433Z,98440.16
2022-12-31T17:45:00.860Z,98429.81
2022-12-31T17:47:51.006Z,98436.09
2022-12-31T17:50:49.472Z,98440.06
2022-12-31T17:53:38.806Z,98440.75
2022-12-31T17:56:26.699Z,98447.03
2022-12-31T17:59:18.861Z,98443.56
2022-12-31T18:02:12.493Z,98440.38
2022-12-31T18:05:00.647Z,98437.72
2022-12-31T18:07:48.716Z,98444.03
2022-12-31T18:10:40.696Z,98435.66
2022-12-31T18:13:29.392Z,98442.44
2022-12-31T18:16:17.734Z,98444.03
2022-12-31T18:19:23.651Z,98448.97
2022-12-31T18:22:19.547Z,98445.09
2022-12-31T18:25:09.019Z,98445.00
2022-12-31T18:27:57.970Z,98458.75
2022-12-31T18:30:47.442Z,98464.53
2022-12-31T18:33:35.215Z,98465.94
2022-12-31T18:36:24.373Z,98471.00
2022-12-31T18:39:12.098Z,98471.28
2022-12-31T18:42:00.284Z,98471.16
2022-12-31T18:44:49.197Z,98469.94
2022-12-31T18:47:37.945Z,98472.09
2022-12-31T18:50:26.302Z,98470.00
2022-12-31T18:53:18.178Z,98467.78
2022-12-31T18:56:06.453Z,98477.00
2022-12-31T18:58:54.568Z,98472.16
2022-12-31T19:01:44.230Z,98470.75
2022-12-31T19:04:32.412Z,98469.41
2022-12-31T19:07:20.300Z,98479.31
2022-12-31T19:10:08.534Z,98475.97
2022-12-31T19:12:56.527Z,98482.94
2022-12-31T19:15:48.749Z,98479.31
2022-12-31T19:18:38.636Z,98487.69
2022-12-31T19:21:26.391Z,98483.47
2022-12-31T19:24:17.881Z,98484.94
2022-12-31T19:27:05.616Z,98484.22
2022-12-31T19:29:53.345Z,98479.16
2022-12-31T19:32:41.302Z,98488.31
2022-12-31T19:35:30.839Z,98475.91
2022-12-31T19:38:21.531Z,98474.16
2022-12-31T19:41:15.703Z,98474.72
2022-12-31T19:44:04.045Z,98466.41
2022-12-31T19:46:51.896Z,98462.09
2022-12-31T19:49:39.979Z,98464.59
2022-12-31T19:52:29.188Z,98463.25
2022-12-31T19:55:19.668Z,98458.53
2022-12-31T19:58:08.230Z,98471.81
2022-12-31T20:01:02.357Z,98472.66
2022-12-31T20:03:51.102Z,98471.38
2022-12-31T20:06:38.897Z,98479.53
2022-12-31T20:09:28.101Z,98483.78
2022-12-31T20:12:16.257Z,98495.16
2022-12-31T20:15:04.397Z,98508.75
2022-12-31T20:17:52.333Z,98502.31
2022-12-31T20:20:51.635Z,98510.41
2022-12-31T20:23:43.064Z,98511.00
2022-12-31T20:26:34.341Z,98511.00
2022-12-31T20:29:22.359Z,98510.72
2022-12-31T20:32:11.556Z,98514.56
2022-12-31T20:34:59.808Z,98515.78
2022-12-31T20:37:47.959Z,98519.97
2022-12-31T20:40:36.626Z,98520.53
2022-12-31T20:43:31.916Z,98531.13
2022-12-31T20:46:22.471Z,98526.19
2022-12-31T20:49:12.049Z,98523.13
2022-12-31T20:51:59.963Z,98513.22
2022-12-31T20:54:49.845Z,98514.59
2022-12-31T20:57:37.557Z,98513.63
2022-12-31T21:00:26.959Z,98516.53
2022-12-31T21:03:53.751Z,98511.59
2022-12-31T21:06:22.840Z,98504.00
2022-12-31T21:09:11.119Z,98498.81
2022-12-31T21:12:16.483Z,98497.50
2022-12-31T21:15:04.280Z,98502.50
2022-12-31T21:17:53.757Z,98494.25
2022-12-31T21:20:41.683Z,98499.25
2022-12-31T21:23:29.953Z,98501.75
2022-12-31T21:26:18.112Z,98486.13
2022-12-31T21:29:05.904Z,98483.97
2022-12-31T21:31:53.894Z,98489.38
2022-12-31T21:34:43.202Z,98488.06
2022-12-31T21:37:58.656Z,98490.56
2022-12-31T21:40:38.811Z,98491.31
2022-12-31T21:43:26.628Z,98503.56
2022-12-31T21:46:14.228Z,98504.97
2022-12-31T21:49:03.142Z,98502.63
2022-12-31T21:52:10.108Z,98512.34
2022-12-31T21:55:17.512Z,98515.66
2022-12-31T22:01:35.290Z,98512.19
2022-12-31T22:05:00.493Z,98511.81
2022-12-31T22:07:32.622Z,98518.63
2022-12-31T22:10:22.091Z,98517.25
2022-12-31T22:13:09.805Z,98522.19
2022-12-31T22:16:04.719Z,98518.16
2022-12-31T22:18:55.842Z,98527.09
2022-12-31T22:21:43.569Z,98536.09
2022-12-31T22:24:33.332Z,98533.56
2022-12-31T22:27:34.421Z,98539.75
2022-12-31T22:31:09.829Z,98535.19
2022-12-31T22:34:25.930Z,98545.13
2022-12-31T22:37:46.560Z,98549.63
2022-12-31T22:40:26.037Z,98548.47
2022-12-31T22:43:14.026Z,98560.56
2022-12-31T22:46:08.646Z,98553.84
2022-12-31T22:49:00.186Z,98551.97
2022-12-31T22:51:54.996Z,98557.91
2022-12-31T22:54:45.268Z,98567.63
2022-12-31T22:57:35.092Z,98565.56
2022-12-31T23:01:29.769Z,98567.81
2022-12-31T23:04:18.469Z,98562.00
2022-12-31T23:07:07.439Z,98569.88
2022-12-31T23:10:12.973Z,98574.09
2022-12-31T23:13:16.594Z,98585.31
2022-12-31T23:16:21.973Z,98584.53
2022-12-31T23:19:27.818Z,98585.34
2022-12-31T23:22:33.641Z,98583.59
2022-12-31T23:25:21.906Z,98581.94
2022-12-31T23:28:13.006Z,98586.16
2022-12-31T23:31:10.191Z,98592.03
2022-12-31T23:33:58.037Z,98590.25
2022-12-31T23:36:46.259Z,98593.59
2022-12-31T23:39:34.582Z,98591.50
2022-12-31T23:42:22.474Z,98588.75
2022-12-31T23:45:18.220Z,98583.00
2022-12-31T23:48:06.302Z,98581.06
2022-12-31T23:50:54.576Z,98582.47
2022-12-31T23:53:42.244Z,98584.00
2022-12-31T23:56:30.196Z,98591.53
2022-12-31T23:59:19.035Z,98588.47
